sensor_id;sensor_type;location;lat;lon;timestamp;pressure;altitude;pressure_sealevel;temperature;humidity
19236;BME280;9752;54.270;12.470;2023-07-22T00:00:24;103350.06;;;12.88;100.00
19236;BME280;9752;54.270;12.470;2023-07-22T00:05:26;103412.56;;;12.88;100.00
19236;BME280;9752;54.270;12.470;2023-07-22T00:10:28;103379.47;;;12.87;100.00
19236;BME280;9752;54.270;12.470;2023-07-22T00:15:31;103441.84;;;12.86;100.00
19236;BME280;9752;54.270;12.470;2023-07-22T00:20:33;103424.53;;;12.86;100.00
19236;BME280;9752;54.270;12.470;2023-07-22T00:25:34;103472.97;;;12.84;100.00
19236;BME280;9752;54.270;12.470;2023-07-22T00:30:37;103469.44;;;12.84;100.00
19236;BME280;9752;54.270;12.470;2023-07-22T00:35:39;103521.44;;;12.74;100.00
19236;BME280;9752;54.270;12.470;2023-07-22T00:40:41;103583.81;;;12.63;100.00
19236;BME280;9752;54.270;12.470;2023-07-22T00:45:44;103605.91;;;12.58;100.00
19236;BME280;9752;54.270;12.470;2023-07-22T00:50:45;103604.22;;;12.50;100.00
19236;BME280;9752;54.270;12.470;2023-07-22T00:55:47;103681.88;;;12.45;100.00
19236;BME280;9752;54.270;12.470;2023-07-22T01:00:50;103653.25;;;12.37;100.00
19236;BME280;9752;54.270;12.470;2023-07-22T01:05:53;103672.09;;;12.34;100.00
19236;BME280;9752;54.270;12.470;2023-07-22T01:10:56;103672.22;;;12.27;100.00
19236;BME280;9752;54.270;12.470;2023-07-22T01:15:59;103730.41;;;12.19;100.00
19236;BME280;9752;54.270;12.470;2023-07-22T01:21:01;103688.47;;;12.16;100.00
19236;BME280;9752;54.270;12.470;2023-07-22T01:26:05;103658.63;;;12.03;100.00
19236;BME280;9752;54.270;12.470;2023-07-22T01:31:06;103686.63;;;11.97;100.00
19236;BME280;9752;54.270;12.470;2023-07-22T01:36:08;103727.47;;;11.89;100.00
19236;BME280;9752;54.270;12.470;2023-07-22T01:41:11;103851.78;;;11.85;100.00
19236;BME280;9752;54.270;12.470;2023-07-22T01:46:13;103822.13;;;11.83;100.00
19236;BME280;9752;54.270;12.470;2023-07-22T01:51:15;103843.31;;;11.70;100.00
19236;BME280;9752;54.270;12.470;2023-07-22T01:56:18;103893.31;;;11.67;100.00
19236;BME280;9752;54.270;12.470;2023-07-22T02:01:20;103911.63;;;11.60;100.00
19236;BME280;9752;54.270;12.470;2023-07-22T02:06:22;103870.94;;;11.61;100.00
19236;BME280;9752;54.270;12.470;2023-07-22T02:11:25;103967.03;;;11.68;100.00
19236;BME280;9752;54.270;12.470;2023-07-22T02:16:28;103995.00;;;11.86;100.00
19236;BME280;9752;54.270;12.470;2023-07-22T02:21:30;104057.13;;;11.99;100.00
19236;BME280;9752;54.270;12.470;2023-07-22T02:26:33;104100.03;;;12.11;100.00
19236;BME280;9752;54.270;12.470;2023-07-22T02:31:35;104205.13;;;12.21;100.00
19236;BME280;9752;54.270;12.470;2023-07-22T02:36:36;104180.53;;;12.26;100.00
19236;BME280;9752;54.270;12.470;2023-07-22T02:41:39;104281.03;;;12.33;100.00
19236;BME280;9752;54.270;12.470;2023-07-22T02:46:41;104169.69;;;12.30;100.00
19236;BME280;9752;54.270;12.470;2023-07-22T02:51:43;104391.88;;;12.30;100.00
19236;BME280;9752;54.270;12.470;2023-07-22T02:56:46;104347.59;;;12.15;100.00
19236;BME280;9752;54.270;12.470;2023-07-22T03:01:48;104366.97;;;11.94;100.00
19236;BME280;9752;54.270;12.470;2023-07-22T03:06:50;104297.16;;;11.82;100.00
19236;BME280;9752;54.270;12.470;2023-07-22T03:11:54;104433.78;;;11.71;100.00
19236;BME280;9752;54.270;12.470;2023-07-22T03:16:57;104587.66;;;11.60;100.00
19236;BME280;9752;54.270;12.470;2023-07-22T03:21:59;104567.97;;;11.55;100.00
19236;BME280;9752;54.270;12.470;2023-07-22T03:27:02;104672.75;;;11.54;100.00
19236;BME280;9752;54.270;12.470;2023-07-22T03:32:05;104700.38;;;11.61;100.00
19236;BME280;9752;54.270;12.470;2023-07-22T03:37:06;104759.66;;;11.63;100.00
19236;BME280;9752;54.270;12.470;2023-07-22T03:42:11;104893.41;;;11.87;100.00
19236;BME280;9752;54.270;12.470;2023-07-22T03:47:12;104970.75;;;11.95;100.00
19236;BME280;9752;54.270;12.470;2023-07-22T03:52:14;104919.84;;;11.97;100.00
19236;BME280;9752;54.270;12.470;2023-07-22T03:57:25;105267.56;;;11.97;100.00
19236;BME280;9752;54.270;12.470;2023-07-22T04:02:26;105114.63;;;12.01;100.00
19236;BME280;9752;54.270;12.470;2023-07-22T04:07:28;105101.44;;;12.21;100.00
19236;BME280;9752;54.270;12.470;2023-07-22T04:12:31;105237.78;;;12.29;100.00
19236;BME280;9752;54.270;12.470;2023-07-22T04:17:33;105072.25;;;12.31;100.00
19236;BME280;9752;54.270;12.470;2023-07-22T04:22:34;105271.66;;;12.36;100.00
19236;BME280;9752;54.270;12.470;2023-07-22T04:27:37;105311.88;;;12.45;100.00
19236;BME280;9752;54.270;12.470;2023-07-22T04:32:39;105244.72;;;12.50;100.00
19236;BME280;9752;54.270;12.470;2023-07-22T04:37:41;104928.66;;;12.57;100.00
19236;BME280;9752;54.270;12.470;2023-07-22T04:42:44;105394.78;;;12.69;100.00
19236;BME280;9752;54.270;12.470;2023-07-22T04:47:46;105328.72;;;12.76;100.00
19236;BME280;9752;54.270;12.470;2023-07-22T04:52:49;103378.91;;;12.81;100.00
19236;BME280;9752;54.270;12.470;2023-07-22T04:57:52;103749.84;;;12.83;100.00
19236;BME280;9752;54.270;12.470;2023-07-22T05:02:54;104006.50;;;12.80;100.00
19236;BME280;9752;54.270;12.470;2023-07-22T05:07:56;103837.94;;;12.87;100.00
19236;BME280;9752;54.270;12.470;2023-07-22T05:12:59;103811.59;;;13.02;100.00
19236;BME280;9752;54.270;12.470;2023-07-22T05:18:01;103835.16;;;13.21;100.00
19236;BME280;9752;54.270;12.470;2023-07-22T05:23:03;103803.56;;;13.26;100.00
19236;BME280;9752;54.270;12.470;2023-07-22T05:28:06;103864.47;;;13.36;100.00
19236;BME280;9752;54.270;12.470;2023-07-22T05:33:08;103871.94;;;13.50;100.00
19236;BME280;9752;54.270;12.470;2023-07-22T05:38:09;103893.63;;;13.77;100.00
19236;BME280;9752;54.270;12.470;2023-07-22T05:43:12;104074.34;;;14.28;100.00
19236;BME280;9752;54.270;12.470;2023-07-22T05:48:14;104237.94;;;14.71;100.00
19236;BME280;9752;54.270;12.470;2023-07-22T05:53:15;104247.22;;;15.21;100.00
19236;BME280;9752;54.270;12.470;2023-07-22T05:58:18;104223.91;;;15.33;100.00
19236;BME280;9752;54.270;12.470;2023-07-22T06:03:20;104105.25;;;14.77;100.00
19236;BME280;9752;54.270;12.470;2023-07-22T06:08:22;104047.56;;;14.48;100.00
19236;BME280;9752;54.270;12.470;2023-07-22T06:13:25;104058.75;;;15.01;100.00
19236;BME280;9752;54.270;12.470;2023-07-22T06:18:27;104055.31;;;15.49;100.00
19236;BME280;9752;54.270;12.470;2023-07-22T06:23:28;104019.69;;;16.08;100.00
19236;BME280;9752;54.270;12.470;2023-07-22T06:28:31;104020.97;;;16.42;100.00
19236;BME280;9752;54.270;12.470;2023-07-22T06:33:33;103915.19;;;15.71;100.00
19236;BME280;9752;54.270;12.470;2023-07-22T06:38:35;103806.66;;;15.76;100.00
19236;BME280;9752;54.270;12.470;2023-07-22T06:43:38;103741.34;;;15.88;100.00
19236;BME280;9752;54.270;12.470;2023-07-22T06:48:40;103692.59;;;16.31;100.00
19236;BME280;9752;54.270;12.470;2023-07-22T06:53:42;103615.97;;;15.81;100.00
19236;BME280;9752;54.270;12.470;2023-07-22T06:58:44;103464.38;;;16.49;100.00
19236;BME280;9752;54.270;12.470;2023-07-22T07:03:47;103355.56;;;16.54;100.00
19236;BME280;9752;54.270;12.470;2023-07-22T07:08:48;103236.03;;;15.75;100.00
19236;BME280;9752;54.270;12.470;2023-07-22T07:13:51;103145.94;;;15.27;100.00
19236;BME280;9752;54.270;12.470;2023-07-22T07:18:53;103103.22;;;15.05;100.00
19236;BME280;9752;54.270;12.470;2023-07-22T07:23:56;103186.00;;;15.16;100.00
19236;BME280;9752;54.270;12.470;2023-07-22T07:28:59;103183.91;;;16.35;100.00
19236;BME280;9752;54.270;12.470;2023-07-22T07:34:00;103044.44;;;16.87;100.00
19236;BME280;9752;54.270;12.470;2023-07-22T07:39:02;102920.09;;;17.62;100.00
19236;BME280;9752;54.270;12.470;2023-07-22T07:44:05;102754.66;;;17.05;100.00
19236;BME280;9752;54.270;12.470;2023-07-22T07:49:07;102680.28;;;15.98;100.00
19236;BME280;9752;54.270;12.470;2023-07-22T07:54:09;102661.88;;;16.10;100.00
19236;BME280;9752;54.270;12.470;2023-07-22T07:59:12;102636.06;;;15.89;100.00
19236;BME280;9752;54.270;12.470;2023-07-22T08:04:13;102619.69;;;16.58;100.00
19236;BME280;9752;54.270;12.470;2023-07-22T08:09:17;102599.84;;;16.89;100.00
19236;BME280;9752;54.270;12.470;2023-07-22T08:14:21;102638.22;;;16.88;100.00
19236;BME280;9752;54.270;12.470;2023-07-22T08:19:23;102596.28;;;16.88;100.00
19236;BME280;9752;54.270;12.470;2023-07-22T08:24:25;102559.81;;;16.65;100.00
19236;BME280;9752;54.270;12.470;2023-07-22T08:29:28;102572.97;;;17.79;100.00
19236;BME280;9752;54.270;12.470;2023-07-22T08:34:29;102572.09;;;16.79;100.00
19236;BME280;9752;54.270;12.470;2023-07-22T08:39:31;102618.66;;;16.96;100.00
19236;BME280;9752;54.270;12.470;2023-07-22T08:44:38;102581.50;;;17.17;100.00
19236;BME280;9752;54.270;12.470;2023-07-22T08:49:41;102617.66;;;17.94;100.00
19236;BME280;9752;54.270;12.470;2023-07-22T08:54:46;102715.66;;;17.80;100.00
19236;BME280;9752;54.270;12.470;2023-07-22T08:59:51;102506.28;;;16.88;100.00
19236;BME280;9752;54.270;12.470;2023-07-22T09:04:54;102501.81;;;16.58;100.00
19236;BME280;9752;54.270;12.470;2023-07-22T09:09:56;102500.22;;;17.17;100.00
19236;BME280;9752;54.270;12.470;2023-07-22T09:14:59;102487.13;;;16.89;100.00
19236;BME280;9752;54.270;12.470;2023-07-22T09:20:02;102472.94;;;16.72;100.00
19236;BME280;9752;54.270;12.470;2023-07-22T09:25:15;102600.47;;;16.58;100.00
19236;BME280;9752;54.270;12.470;2023-07-22T09:30:23;102638.53;;;16.26;100.00
19236;BME280;9752;54.270;12.470;2023-07-22T09:35:26;102684.63;;;17.31;100.00
19236;BME280;9752;54.270;12.470;2023-07-22T09:40:29;102654.50;;;17.11;100.00
19236;BME280;9752;54.270;12.470;2023-07-22T09:45:32;102646.41;;;16.93;100.00
19236;BME280;9752;54.270;12.470;2023-07-22T09:50:36;102658.78;;;17.80;100.00
19236;BME280;9752;54.270;12.470;2023-07-22T09:55:37;102766.41;;;17.52;100.00
19236;BME280;9752;54.270;12.470;2023-07-22T10:00:42;102680.91;;;17.55;100.00
19236;BME280;9752;54.270;12.470;2023-07-22T10:05:48;102574.31;;;17.58;100.00
19236;BME280;9752;54.270;12.470;2023-07-22T10:10:51;102563.50;;;17.66;100.00
19236;BME280;9752;54.270;12.470;2023-07-22T10:15:56;102594.97;;;17.66;100.00
19236;BME280;9752;54.270;12.470;2023-07-22T10:20:58;102594.81;;;18.69;100.00
19236;BME280;9752;54.270;12.470;2023-07-22T10:26:01;102557.72;;;18.48;100.00
19236;BME280;9752;54.270;12.470;2023-07-22T10:31:04;102701.69;;;17.52;100.00
19236;BME280;9752;54.270;12.470;2023-07-22T10:36:12;102663.09;;;15.14;100.00
19236;BME280;9752;54.270;12.470;2023-07-22T10:41:15;102685.88;;;14.11;100.00
19236;BME280;9752;54.270;12.470;2023-07-22T10:46:30;102706.56;;;14.08;100.00
19236;BME280;9752;54.270;12.470;2023-07-22T10:51:35;102737.91;;;14.31;100.00
19236;BME280;9752;54.270;12.470;2023-07-22T10:56:37;102739.88;;;14.45;100.00
19236;BME280;9752;54.270;12.470;2023-07-22T11:01:43;102879.66;;;14.86;100.00
19236;BME280;9752;54.270;12.470;2023-07-22T11:06:53;102798.47;;;15.79;100.00
19236;BME280;9752;54.270;12.470;2023-07-22T11:11:57;102779.00;;;16.26;100.00
19236;BME280;9752;54.270;12.470;2023-07-22T11:17:03;102749.09;;;17.27;100.00
19236;BME280;9752;54.270;12.470;2023-07-22T11:22:05;102705.94;;;17.50;100.00
19236;BME280;9752;54.270;12.470;2023-07-22T11:27:07;102712.06;;;17.36;100.00
19236;BME280;9752;54.270;12.470;2023-07-22T11:32:16;102681.69;;;17.40;100.00
19236;BME280;9752;54.270;12.470;2023-07-22T11:37:18;102659.19;;;16.88;100.00
19236;BME280;9752;54.270;12.470;2023-07-22T11:42:19;102660.13;;;17.30;100.00
19236;BME280;9752;54.270;12.470;2023-07-22T11:47:28;102647.09;;;17.75;100.00
19236;BME280;9752;54.270;12.470;2023-07-22T11:52:30;102595.59;;;17.77;100.00
19236;BME280;9752;54.270;12.470;2023-07-22T11:57:32;102571.56;;;18.14;100.00
19236;BME280;9752;54.270;12.470;2023-07-22T12:02:35;102555.56;;;18.41;100.00
19236;BME280;9752;54.270;12.470;2023-07-22T12:07:38;102525.91;;;18.91;100.00
19236;BME280;9752;54.270;12.470;2023-07-22T12:12:41;102502.44;;;18.94;100.00
19236;BME280;9752;54.270;12.470;2023-07-22T12:17:52;102584.41;;;18.87;100.00
19236;BME280;9752;54.270;12.470;2023-07-22T12:22:54;102495.34;;;18.93;100.00
19236;BME280;9752;54.270;12.470;2023-07-22T12:27:56;102445.25;;;19.24;100.00
19236;BME280;9752;54.270;12.470;2023-07-22T12:32:59;102444.44;;;19.78;100.00
19236;BME280;9752;54.270;12.470;2023-07-22T12:38:00;102527.00;;;19.27;100.00
19236;BME280;9752;54.270;12.470;2023-07-22T12:43:02;102458.09;;;18.05;100.00
19236;BME280;9752;54.270;12.470;2023-07-22T12:48:05;102471.34;;;17.91;100.00
19236;BME280;9752;54.270;12.470;2023-07-22T12:53:07;103365.91;;;18.06;100.00
19236;BME280;9752;54.270;12.470;2023-07-22T12:58:10;102862.34;;;17.88;100.00
19236;BME280;9752;54.270;12.470;2023-07-22T13:03:13;102892.03;;;18.29;100.00
19236;BME280;9752;54.270;12.470;2023-07-22T13:08:14;103026.25;;;19.17;100.00
19236;BME280;9752;54.270;12.470;2023-07-22T13:13:16;102827.72;;;19.41;100.00
19236;BME280;9752;54.270;12.470;2023-07-22T13:18:19;102793.09;;;19.50;100.00
19236;BME280;9752;54.270;12.470;2023-07-22T13:23:20;102772.66;;;20.10;100.00
19236;BME280;9752;54.270;12.470;2023-07-22T13:28:22;102769.59;;;20.70;100.00
19236;BME280;9752;54.270;12.470;2023-07-22T13:33:25;102763.75;;;20.93;100.00
19236;BME280;9752;54.270;12.470;2023-07-22T13:38:27;102765.75;;;20.81;100.00
19236;BME280;9752;54.270;12.470;2023-07-22T13:43:29;103286.88;;;20.76;100.00
19236;BME280;9752;54.270;12.470;2023-07-22T13:48:32;102856.09;;;19.78;100.00
19236;BME280;9752;54.270;12.470;2023-07-22T13:53:33;102801.91;;;19.67;100.00
19236;BME280;9752;54.270;12.470;2023-07-22T13:58:35;102740.44;;;19.34;100.00
19236;BME280;9752;54.270;12.470;2023-07-22T14:03:38;102718.91;;;19.41;100.00
19236;BME280;9752;54.270;12.470;2023-07-22T14:08:40;102718.91;;;19.57;100.00
19236;BME280;9752;54.270;12.470;2023-07-22T14:13:42;102679.25;;;18.90;100.00
19236;BME280;9752;54.270;12.470;2023-07-22T14:18:45;102687.06;;;18.59;100.00
19236;BME280;9752;54.270;12.470;2023-07-22T14:23:47;102639.69;;;19.36;100.00
19236;BME280;9752;54.270;12.470;2023-07-22T14:28:48;102689.44;;;20.84;100.00
19236;BME280;9752;54.270;12.470;2023-07-22T14:33:51;102620.78;;;19.76;100.00
19236;BME280;9752;54.270;12.470;2023-07-22T14:38:53;102616.78;;;20.19;100.00
19236;BME280;9752;54.270;12.470;2023-07-22T14:43:56;102613.72;;;20.63;100.00
19236;BME280;9752;54.270;12.470;2023-07-22T14:48:59;102613.09;;;20.87;100.00
19236;BME280;9752;54.270;12.470;2023-07-22T14:54:00;102587.44;;;20.47;100.00
19236;BME280;9752;54.270;12.470;2023-07-22T14:59:03;102555.16;;;19.46;100.00
19236;BME280;9752;54.270;12.470;2023-07-22T15:04:06;102549.78;;;19.10;100.00
19236;BME280;9752;54.270;12.470;2023-07-22T15:09:07;102577.81;;;18.47;100.00
19236;BME280;9752;54.270;12.470;2023-07-22T15:14:09;102668.28;;;18.21;100.00
19236;BME280;9752;54.270;12.470;2023-07-22T15:19:12;102685.09;;;17.39;100.00
19236;BME280;9752;54.270;12.470;2023-07-22T15:24:14;102588.06;;;17.10;100.00
19236;BME280;9752;54.270;12.470;2023-07-22T15:29:16;102559.75;;;16.50;100.00
19236;BME280;9752;54.270;12.470;2023-07-22T15:34:19;102544.56;;;16.31;100.00
19236;BME280;9752;54.270;12.470;2023-07-22T15:39:20;102545.13;;;17.08;100.00
19236;BME280;9752;54.270;12.470;2023-07-22T15:44:22;102540.16;;;18.32;100.00
19236;BME280;9752;54.270;12.470;2023-07-22T15:49:28;102575.50;;;20.01;100.00
19236;BME280;9752;54.270;12.470;2023-07-22T15:54:30;102525.25;;;18.95;100.00
19236;BME280;9752;54.270;12.470;2023-07-22T15:59:32;102478.88;;;18.64;100.00
19236;BME280;9752;54.270;12.470;2023-07-22T16:04:35;102450.59;;;19.26;100.00
19236;BME280;9752;54.270;12.470;2023-07-22T16:09:37;102437.44;;;19.26;100.00
19236;BME280;9752;54.270;12.470;2023-07-22T16:14:38;102415.28;;;19.04;100.00
19236;BME280;9752;54.270;12.470;2023-07-22T16:19:41;102413.97;;;18.80;100.00
19236;BME280;9752;54.270;12.470;2023-07-22T16:24:43;102395.75;;;18.66;100.00
19236;BME280;9752;54.270;12.470;2023-07-22T16:29:44;102897.84;;;18.10;100.00
19236;BME280;9752;54.270;12.470;2023-07-22T16:34:48;102629.41;;;17.86;100.00
19236;BME280;9752;54.270;12.470;2023-07-22T16:39:49;102626.47;;;17.66;100.00
19236;BME280;9752;54.270;12.470;2023-07-22T16:44:53;102578.88;;;17.32;100.00
19236;BME280;9752;54.270;12.470;2023-07-22T16:49:56;102565.19;;;16.53;100.00
19236;BME280;9752;54.270;12.470;2023-07-22T16:54:58;102569.84;;;16.17;100.00
19236;BME280;9752;54.270;12.470;2023-07-22T17:00:00;102565.50;;;16.04;100.00
19236;BME280;9752;54.270;12.470;2023-07-22T17:05:04;102573.47;;;15.92;100.00
19236;BME280;9752;54.270;12.470;2023-07-22T17:10:06;102489.38;;;16.01;100.00
19236;BME280;9752;54.270;12.470;2023-07-22T17:15:09;102517.38;;;16.15;100.00
19236;BME280;9752;54.270;12.470;2023-07-22T17:20:14;102440.19;;;16.09;100.00
19236;BME280;9752;54.270;12.470;2023-07-22T17:25:16;102496.97;;;15.96;100.00
19236;BME280;9752;54.270;12.470;2023-07-22T17:30:18;102566.91;;;15.86;100.00
19236;BME280;9752;54.270;12.470;2023-07-22T17:35:21;102577.66;;;15.77;100.00
19236;BME280;9752;54.270;12.470;2023-07-22T17:40:23;102497.25;;;15.74;100.00
19236;BME280;9752;54.270;12.470;2023-07-22T17:45:26;102576.28;;;15.70;100.00
19236;BME280;9752;54.270;12.470;2023-07-22T17:50:29;102541.38;;;15.70;100.00
19236;BME280;9752;54.270;12.470;2023-07-22T17:55:31;102519.53;;;15.56;100.00
19236;BME280;9752;54.270;12.470;2023-07-22T18:00:33;102453.13;;;15.40;100.00
19236;BME280;9752;54.270;12.470;2023-07-22T18:05:36;102511.56;;;15.41;100.00
19236;BME280;9752;54.270;12.470;2023-07-22T18:10:38;102576.06;;;15.29;100.00
19236;BME280;9752;54.270;12.470;2023-07-22T18:15:40;102514.94;;;15.27;100.00
19236;BME280;9752;54.270;12.470;2023-07-22T18:20:43;102572.25;;;15.23;100.00
19236;BME280;9752;54.270;12.470;2023-07-22T18:25:44;102641.16;;;15.12;100.00
19236;BME280;9752;54.270;12.470;2023-07-22T18:30:46;102667.53;;;15.03;100.00
19236;BME280;9752;54.270;12.470;2023-07-22T18:35:49;102667.22;;;14.99;100.00
19236;BME280;9752;54.270;12.470;2023-07-22T18:40:51;102710.84;;;14.88;100.00
19236;BME280;9752;54.270;12.470;2023-07-22T18:45:53;102726.06;;;14.82;100.00
19236;BME280;9752;54.270;12.470;2023-07-22T18:50:56;102720.50;;;14.77;100.00
19236;BME280;9752;54.270;12.470;2023-07-22T18:55:58;102937.88;;;14.73;100.00
19236;BME280;9752;54.270;12.470;2023-07-22T19:01:00;103011.56;;;14.69;100.00
19236;BME280;9752;54.270;12.470;2023-07-22T19:06:03;102796.38;;;14.67;100.00
19236;BME280;9752;54.270;12.470;2023-07-22T19:11:05;102707.09;;;14.61;100.00
19236;BME280;9752;54.270;12.470;2023-07-22T19:16:09;102945.00;;;14.64;100.00
19236;BME280;9752;54.270;12.470;2023-07-22T19:21:12;103913.56;;;14.58;100.00
19236;BME280;9752;54.270;12.470;2023-07-22T19:26:15;103102.50;;;14.53;100.00
19236;BME280;9752;54.270;12.470;2023-07-22T19:31:17;103087.88;;;14.55;100.00
19236;BME280;9752;54.270;12.470;2023-07-22T19:36:20;103030.03;;;14.60;100.00
19236;BME280;9752;54.270;12.470;2023-07-22T19:41:22;103089.59;;;14.64;100.00
19236;BME280;9752;54.270;12.470;2023-07-22T19:46:23;103082.09;;;14.69;100.00
19236;BME280;9752;54.270;12.470;2023-07-22T19:51:26;103079.63;;;14.71;100.00
19236;BME280;9752;54.270;12.470;2023-07-22T19:56:28;103139.56;;;14.69;100.00
19236;BME280;9752;54.270;12.470;2023-07-22T20:01:30;103140.34;;;14.68;100.00
19236;BME280;9752;54.270;12.470;2023-07-22T20:06:33;103147.69;;;14.62;100.00
19236;BME280;9752;54.270;12.470;2023-07-22T20:11:34;103127.47;;;14.59;100.00
19236;BME280;9752;54.270;12.470;2023-07-22T20:16:36;103136.47;;;14.53;100.00
19236;BME280;9752;54.270;12.470;2023-07-22T20:21:39;103144.84;;;14.49;100.00
19236;BME280;9752;54.270;12.470;2023-07-22T20:26:41;103121.88;;;14.44;100.00
19236;BME280;9752;54.270;12.470;2023-07-22T20:31:43;103116.66;;;14.44;100.00
19236;BME280;9752;54.270;12.470;2023-07-22T20:36:46;103176.09;;;14.37;100.00
19236;BME280;9752;54.270;12.470;2023-07-22T20:41:47;103153.75;;;14.30;100.00
19236;BME280;9752;54.270;12.470;2023-07-22T20:46:49;103204.16;;;14.29;100.00
19236;BME280;9752;54.270;12.470;2023-07-22T20:51:52;103209.50;;;14.20;100.00
19236;BME280;9752;54.270;12.470;2023-07-22T20:56:54;103179.53;;;14.15;100.00
19236;BME280;9752;54.270;12.470;2023-07-22T21:01:55;103197.53;;;14.12;100.00
19236;BME280;9752;54.270;12.470;2023-07-22T21:06:58;103209.41;;;14.09;100.00
19236;BME280;9752;54.270;12.470;2023-07-22T21:12:01;103197.91;;;14.06;100.00
19236;BME280;9752;54.270;12.470;2023-07-22T21:17:03;103171.06;;;14.08;100.00
19236;BME280;9752;54.270;12.470;2023-07-22T21:22:06;103179.66;;;14.06;100.00
19236;BME280;9752;54.270;12.470;2023-07-22T21:27:07;103204.28;;;14.00;100.00
19236;BME280;9752;54.270;12.470;2023-07-22T21:32:09;103222.19;;;13.95;100.00
19236;BME280;9752;54.270;12.470;2023-07-22T21:37:12;103248.00;;;13.92;100.00
19236;BME280;9752;54.270;12.470;2023-07-22T21:42:14;103244.09;;;13.87;100.00
19236;BME280;9752;54.270;12.470;2023-07-22T21:47:15;103251.13;;;13.88;100.00
19236;BME280;9752;54.270;12.470;2023-07-22T21:52:18;103344.00;;;13.86;100.00
19236;BME280;9752;54.270;12.470;2023-07-22T21:57:20;103418.63;;;13.84;100.00
19236;BME280;9752;54.270;12.470;2023-07-22T22:02:22;103390.44;;;13.80;100.00
19236;BME280;9752;54.270;12.470;2023-07-22T22:07:25;103602.41;;;13.77;100.00
19236;BME280;9752;54.270;12.470;2023-07-22T22:12:26;103580.19;;;13.72;100.00
19236;BME280;9752;54.270;12.470;2023-07-22T22:17:28;103646.16;;;13.71;100.00
19236;BME280;9752;54.270;12.470;2023-07-22T22:22:31;103661.19;;;13.74;100.00
19236;BME280;9752;54.270;12.470;2023-07-22T22:27:33;104080.13;;;13.72;100.00
19236;BME280;9752;54.270;12.470;2023-07-22T22:32:35;104075.97;;;13.74;100.00
19236;BME280;9752;54.270;12.470;2023-07-22T22:37:38;104072.91;;;13.78;100.00
19236;BME280;9752;54.270;12.470;2023-07-22T22:42:39;103939.69;;;13.76;100.00
19236;BME280;9752;54.270;12.470;2023-07-22T22:47:41;103963.81;;;13.74;100.00
19236;BME280;9752;54.270;12.470;2023-07-22T22:52:44;103953.97;;;13.71;100.00
19236;BME280;9752;54.270;12.470;2023-07-22T22:57:46;104002.31;;;13.67;100.00
19236;BME280;9752;54.270;12.470;2023-07-22T23:02:47;104027.47;;;13.67;100.00
19236;BME280;9752;54.270;12.470;2023-07-22T23:07:52;104039.78;;;13.68;100.00
19236;BME280;9752;54.270;12.470;2023-07-22T23:12:53;104110.78;;;13.65;100.00
19236;BME280;9752;54.270;12.470;2023-07-22T23:17:55;104144.41;;;13.62;100.00
19236;BME280;9752;54.270;12.470;2023-07-22T23:22:59;104130.59;;;13.63;100.00
19236;BME280;9752;54.270;12.470;2023-07-22T23:28:01;104184.63;;;13.64;100.00
19236;BME280;9752;54.270;12.470;2023-07-22T23:33:03;104216.66;;;13.63;100.00
19236;BME280;9752;54.270;12.470;2023-07-22T23:38:06;104266.56;;;13.66;100.00
19236;BME280;9752;54.270;12.470;2023-07-22T23:43:07;104249.53;;;13.70;100.00
19236;BME280;9752;54.270;12.470;2023-07-22T23:48:09;104305.84;;;13.68;100.00
19236;BME280;9752;54.270;12.470;2023-07-22T23:53:12;104334.56;;;13.68;100.00
19236;BME280;9752;54.270;12.470;2023-07-22T23:58:14;104407.44;;;13.66;100.00
